sensor_id;sensor_type;location;lat;lon;timestamp;temperature;humidity
24260;DHT22;12384;48.112;18.418;2022-11-14T00:01:37;4.80;99.90
24260;DHT22;12384;48.112;18.418;2022-11-14T00:04:24;4.80;99.90
24260;DHT22;12384;48.112;18.418;2022-11-14T00:07:15;4.80;99.90
24260;DHT22;12384;48.112;18.418;2022-11-14T00:10:03;4.80;99.90
24260;DHT22;12384;48.112;18.418;2022-11-14T00:12:50;4.80;99.90
24260;DHT22;12384;48.112;18.418;2022-11-14T00:15:36;4.80;99.90
24260;DHT22;12384;48.112;18.418;2022-11-14T00:18:24;4.80;99.90
24260;DHT22;12384;48.112;18.418;2022-11-14T00:21:11;4.90;99.90
24260;DHT22;12384;48.112;18.418;2022-11-14T00:23:59;4.90;99.90
24260;DHT22;12384;48.112;18.418;2022-11-14T00:26:46;4.90;99.90
24260;DHT22;12384;48.112;18.418;2022-11-14T00:29:33;4.90;99.90
24260;DHT22;12384;48.112;18.418;2022-11-14T00:32:19;4.90;99.90
24260;DHT22;12384;48.112;18.418;2022-11-14T00:35:07;4.80;99.90
24260;DHT22;12384;48.112;18.418;2022-11-14T00:37:54;4.80;99.90
24260;DHT22;12384;48.112;18.418;2022-11-14T00:40:42;4.80;99.90
24260;DHT22;12384;48.112;18.418;2022-11-14T00:43:29;4.70;99.90
24260;DHT22;12384;48.112;18.418;2022-11-14T00:46:16;4.70;99.90
24260;DHT22;12384;48.112;18.418;2022-11-14T00:49:03;4.70;99.90
24260;DHT22;12384;48.112;18.418;2022-11-14T00:51:50;4.70;99.90
24260;DHT22;12384;48.112;18.418;2022-11-14T00:54:36;4.70;99.90
24260;DHT22;12384;48.112;18.418;2022-11-14T00:57:24;4.70;99.90
24260;DHT22;12384;48.112;18.418;2022-11-14T01:00:12;4.60;99.90
24260;DHT22;12384;48.112;18.418;2022-11-14T01:03:00;4.60;99.90
24260;DHT22;12384;48.112;18.418;2022-11-14T01:05:48;4.60;99.90
24260;DHT22;12384;48.112;18.418;2022-11-14T01:08:35;4.60;99.90
24260;DHT22;12384;48.112;18.418;2022-11-14T01:11:22;4.50;99.90
24260;DHT22;12384;48.112;18.418;2022-11-14T01:14:10;4.50;99.90
24260;DHT22;12384;48.112;18.418;2022-11-14T01:16:57;4.50;99.90
24260;DHT22;12384;48.112;18.418;2022-11-14T01:19:44;4.50;99.90
24260;DHT22;12384;48.112;18.418;2022-11-14T01:22:31;4.50;99.90
24260;DHT22;12384;48.112;18.418;2022-11-14T01:25:18;4.50;99.90
24260;DHT22;12384;48.112;18.418;2022-11-14T01:28:07;4.60;99.90
24260;DHT22;12384;48.112;18.418;2022-11-14T01:30:55;4.60;99.90
24260;DHT22;12384;48.112;18.418;2022-11-14T01:33:43;4.70;99.90
24260;DHT22;12384;48.112;18.418;2022-11-14T01:36:30;4.70;99.90
24260;DHT22;12384;48.112;18.418;2022-11-14T01:39:16;4.70;99.90
24260;DHT22;12384;48.112;18.418;2022-11-14T01:42:03;4.80;99.90
24260;DHT22;12384;48.112;18.418;2022-11-14T01:44:51;4.80;99.90
24260;DHT22;12384;48.112;18.418;2022-11-14T01:47:41;4.80;99.90
24260;DHT22;12384;48.112;18.418;2022-11-14T01:50:27;4.80;99.90
24260;DHT22;12384;48.112;18.418;2022-11-14T01:53:14;4.90;99.90
24260;DHT22;12384;48.112;18.418;2022-11-14T01:56:04;4.90;99.90
24260;DHT22;12384;48.112;18.418;2022-11-14T01:58:57;4.90;99.90
24260;DHT22;12384;48.112;18.418;2022-11-14T02:01:48;4.90;99.90
24260;DHT22;12384;48.112;18.418;2022-11-14T02:04:38;4.90;99.90
24260;DHT22;12384;48.112;18.418;2022-11-14T02:07:29;4.90;99.90
24260;DHT22;12384;48.112;18.418;2022-11-14T02:10:20;4.90;99.90
24260;DHT22;12384;48.112;18.418;2022-11-14T02:13:06;4.90;99.90
24260;DHT22;12384;48.112;18.418;2022-11-14T02:15:53;4.90;99.90
24260;DHT22;12384;48.112;18.418;2022-11-14T02:18:40;4.90;99.90
24260;DHT22;12384;48.112;18.418;2022-11-14T02:21:28;4.90;99.90
24260;DHT22;12384;48.112;18.418;2022-11-14T02:24:15;4.90;99.90
24260;DHT22;12384;48.112;18.418;2022-11-14T02:27:03;4.80;99.90
24260;DHT22;12384;48.112;18.418;2022-11-14T02:29:49;4.80;99.90
24260;DHT22;12384;48.112;18.418;2022-11-14T02:32:36;4.80;99.90
24260;DHT22;12384;48.112;18.418;2022-11-14T02:35:43;4.80;99.90
24260;DHT22;12384;48.112;18.418;2022-11-14T02:38:32;4.70;99.90
24260;DHT22;12384;48.112;18.418;2022-11-14T02:41:18;4.70;99.90
24260;DHT22;12384;48.112;18.418;2022-11-14T02:44:06;4.70;99.90
24260;DHT22;12384;48.112;18.418;2022-11-14T02:46:53;4.70;99.90
24260;DHT22;12384;48.112;18.418;2022-11-14T02:49:39;4.70;99.90
24260;DHT22;12384;48.112;18.418;2022-11-14T02:52:26;4.70;99.90
24260;DHT22;12384;48.112;18.418;2022-11-14T02:55:14;4.70;99.90
24260;DHT22;12384;48.112;18.418;2022-11-14T02:58:01;4.70;99.90
24260;DHT22;12384;48.112;18.418;2022-11-14T03:00:47;4.70;99.90
24260;DHT22;12384;48.112;18.418;2022-11-14T03:03:54;4.70;99.90
24260;DHT22;12384;48.112;18.418;2022-11-14T03:06:41;4.70;99.90
24260;DHT22;12384;48.112;18.418;2022-11-14T03:09:28;4.70;99.90
24260;DHT22;12384;48.112;18.418;2022-11-14T03:12:17;4.70;99.90
24260;DHT22;12384;48.112;18.418;2022-11-14T03:15:05;4.70;99.90
24260;DHT22;12384;48.112;18.418;2022-11-14T03:17:53;4.60;99.90
24260;DHT22;12384;48.112;18.418;2022-11-14T03:20:39;4.60;99.90
24260;DHT22;12384;48.112;18.418;2022-11-14T03:23:26;4.60;99.90
24260;DHT22;12384;48.112;18.418;2022-11-14T03:26:14;4.50;99.90
24260;DHT22;12384;48.112;18.418;2022-11-14T03:29:02;4.50;99.90
24260;DHT22;12384;48.112;18.418;2022-11-14T03:31:49;4.50;99.90
24260;DHT22;12384;48.112;18.418;2022-11-14T03:34:36;4.50;99.90
24260;DHT22;12384;48.112;18.418;2022-11-14T03:37:22;4.50;99.90
24260;DHT22;12384;48.112;18.418;2022-11-14T03:40:10;4.50;99.90
24260;DHT22;12384;48.112;18.418;2022-11-14T03:42:56;4.40;99.90
24260;DHT22;12384;48.112;18.418;2022-11-14T03:45:45;4.40;99.90
24260;DHT22;12384;48.112;18.418;2022-11-14T03:48:32;4.40;99.90
24260;DHT22;12384;48.112;18.418;2022-11-14T03:51:19;4.40;99.90
24260;DHT22;12384;48.112;18.418;2022-11-14T03:54:06;4.40;99.90
24260;DHT22;12384;48.112;18.418;2022-11-14T03:56:53;4.40;99.90
24260;DHT22;12384;48.112;18.418;2022-11-14T03:59:39;4.40;99.90
24260;DHT22;12384;48.112;18.418;2022-11-14T04:02:27;4.30;99.90
24260;DHT22;12384;48.112;18.418;2022-11-14T04:05:14;4.30;99.90
24260;DHT22;12384;48.112;18.418;2022-11-14T04:08:03;4.30;99.90
24260;DHT22;12384;48.112;18.418;2022-11-14T04:10:50;4.30;99.90
24260;DHT22;12384;48.112;18.418;2022-11-14T04:13:37;4.20;99.90
24260;DHT22;12384;48.112;18.418;2022-11-14T04:16:24;4.20;99.90
24260;DHT22;12384;48.112;18.418;2022-11-14T04:19:12;4.20;99.90
24260;DHT22;12384;48.112;18.418;2022-11-14T04:21:59;4.20;99.90
24260;DHT22;12384;48.112;18.418;2022-11-14T04:24:46;4.20;99.90
24260;DHT22;12384;48.112;18.418;2022-11-14T04:27:33;4.20;99.90
24260;DHT22;12384;48.112;18.418;2022-11-14T04:30:20;4.20;99.90
24260;DHT22;12384;48.112;18.418;2022-11-14T04:33:06;4.20;99.90
24260;DHT22;12384;48.112;18.418;2022-11-14T04:35:54;4.10;99.90
24260;DHT22;12384;48.112;18.418;2022-11-14T04:38:41;4.10;99.90
24260;DHT22;12384;48.112;18.418;2022-11-14T04:41:28;4.10;99.90
24260;DHT22;12384;48.112;18.418;2022-11-14T04:44:14;4.10;99.90
24260;DHT22;12384;48.112;18.418;2022-11-14T04:47:01;4.10;99.90
24260;DHT22;12384;48.112;18.418;2022-11-14T04:49:48;4.10;99.90
24260;DHT22;12384;48.112;18.418;2022-11-14T04:52:36;4.00;99.90
24260;DHT22;12384;48.112;18.418;2022-11-14T04:55:23;4.00;99.90
24260;DHT22;12384;48.112;18.418;2022-11-14T04:58:10;4.00;99.90
24260;DHT22;12384;48.112;18.418;2022-11-14T05:00:57;4.00;99.90
24260;DHT22;12384;48.112;18.418;2022-11-14T05:03:44;4.00;99.90
24260;DHT22;12384;48.112;18.418;2022-11-14T05:06:31;4.00;99.90
24260;DHT22;12384;48.112;18.418;2022-11-14T05:09:19;4.00;99.90
24260;DHT22;12384;48.112;18.418;2022-11-14T05:12:06;4.00;99.90
24260;DHT22;12384;48.112;18.418;2022-11-14T05:14:53;4.00;99.90
24260;DHT22;12384;48.112;18.418;2022-11-14T05:17:40;4.00;99.90
24260;DHT22;12384;48.112;18.418;2022-11-14T05:20:27;4.00;99.90
24260;DHT22;12384;48.112;18.418;2022-11-14T05:23:19;4.00;99.90
24260;DHT22;12384;48.112;18.418;2022-11-14T05:26:08;4.00;99.90
24260;DHT22;12384;48.112;18.418;2022-11-14T05:28:55;4.00;99.90
24260;DHT22;12384;48.112;18.418;2022-11-14T05:31:42;4.00;99.90
24260;DHT22;12384;48.112;18.418;2022-11-14T05:34:29;4.00;99.90
24260;DHT22;12384;48.112;18.418;2022-11-14T05:37:15;3.90;99.90
24260;DHT22;12384;48.112;18.418;2022-11-14T05:40:03;3.90;99.90
24260;DHT22;12384;48.112;18.418;2022-11-14T05:42:55;3.90;99.90
24260;DHT22;12384;48.112;18.418;2022-11-14T05:45:41;3.90;99.90
24260;DHT22;12384;48.112;18.418;2022-11-14T05:48:28;3.80;99.90
24260;DHT22;12384;48.112;18.418;2022-11-14T05:51:16;3.80;99.90
24260;DHT22;12384;48.112;18.418;2022-11-14T05:54:03;3.80;99.90
24260;DHT22;12384;48.112;18.418;2022-11-14T05:56:50;3.80;99.90
24260;DHT22;12384;48.112;18.418;2022-11-14T05:59:38;3.80;99.90
24260;DHT22;12384;48.112;18.418;2022-11-14T06:02:25;3.80;99.90
24260;DHT22;12384;48.112;18.418;2022-11-14T06:05:12;3.80;99.90
24260;DHT22;12384;48.112;18.418;2022-11-14T06:07:59;3.80;99.90
24260;DHT22;12384;48.112;18.418;2022-11-14T06:10:46;3.80;99.90
24260;DHT22;12384;48.112;18.418;2022-11-14T06:13:33;3.80;99.90
24260;DHT22;12384;48.112;18.418;2022-11-14T06:16:21;3.80;99.90
24260;DHT22;12384;48.112;18.418;2022-11-14T06:19:08;3.80;99.90
24260;DHT22;12384;48.112;18.418;2022-11-14T06:21:55;3.80;99.90
24260;DHT22;12384;48.112;18.418;2022-11-14T06:24:42;3.80;99.90
24260;DHT22;12384;48.112;18.418;2022-11-14T06:27:29;3.80;99.90
24260;DHT22;12384;48.112;18.418;2022-11-14T06:30:15;3.80;99.90
24260;DHT22;12384;48.112;18.418;2022-11-14T06:33:03;3.70;99.90
24260;DHT22;12384;48.112;18.418;2022-11-14T06:35:50;3.80;99.90
24260;DHT22;12384;48.112;18.418;2022-11-14T06:38:42;3.80;99.90
24260;DHT22;12384;48.112;18.418;2022-11-14T06:41:30;3.90;99.90
24260;DHT22;12384;48.112;18.418;2022-11-14T06:44:16;3.90;99.90
24260;DHT22;12384;48.112;18.418;2022-11-14T06:47:03;3.90;99.90
24260;DHT22;12384;48.112;18.418;2022-11-14T06:49:51;4.00;99.90
24260;DHT22;12384;48.112;18.418;2022-11-14T06:52:38;4.00;99.90
24260;DHT22;12384;48.112;18.418;2022-11-14T06:55:25;4.00;99.90
24260;DHT22;12384;48.112;18.418;2022-11-14T06:58:11;4.10;99.90
24260;DHT22;12384;48.112;18.418;2022-11-14T07:01:03;4.20;99.90
24260;DHT22;12384;48.112;18.418;2022-11-14T07:03:50;4.20;99.90
24260;DHT22;12384;48.112;18.418;2022-11-14T07:06:39;4.30;99.90
24260;DHT22;12384;48.112;18.418;2022-11-14T07:09:26;4.40;99.90
24260;DHT22;12384;48.112;18.418;2022-11-14T07:12:13;4.50;99.90
24260;DHT22;12384;48.112;18.418;2022-11-14T07:15:00;4.50;99.90
24260;DHT22;12384;48.112;18.418;2022-11-14T07:17:46;4.60;99.90
24260;DHT22;12384;48.112;18.418;2022-11-14T07:20:33;4.80;99.90
24260;DHT22;12384;48.112;18.418;2022-11-14T07:23:21;4.90;99.90
24260;DHT22;12384;48.112;18.418;2022-11-14T07:26:10;5.00;99.90
24260;DHT22;12384;48.112;18.418;2022-11-14T07:28:57;5.10;99.90
24260;DHT22;12384;48.112;18.418;2022-11-14T07:31:47;5.20;99.90
24260;DHT22;12384;48.112;18.418;2022-11-14T07:34:34;5.30;99.90
24260;DHT22;12384;48.112;18.418;2022-11-14T07:37:21;5.40;99.90
24260;DHT22;12384;48.112;18.418;2022-11-14T07:40:10;5.60;99.90
24260;DHT22;12384;48.112;18.418;2022-11-14T07:42:58;5.80;99.90
24260;DHT22;12384;48.112;18.418;2022-11-14T07:45:45;6.10;99.90
24260;DHT22;12384;48.112;18.418;2022-11-14T07:48:32;6.60;99.90
24260;DHT22;12384;48.112;18.418;2022-11-14T07:51:19;7.10;99.90
24260;DHT22;12384;48.112;18.418;2022-11-14T07:54:09;7.60;99.90
24260;DHT22;12384;48.112;18.418;2022-11-14T07:56:58;8.20;99.90
24260;DHT22;12384;48.112;18.418;2022-11-14T07:59:44;8.80;99.90
24260;DHT22;12384;48.112;18.418;2022-11-14T08:02:31;9.30;99.90
24260;DHT22;12384;48.112;18.418;2022-11-14T08:05:17;9.90;99.90
24260;DHT22;12384;48.112;18.418;2022-11-14T08:08:04;10.50;99.90
24260;DHT22;12384;48.112;18.418;2022-11-14T08:10:52;11.10;99.90
24260;DHT22;12384;48.112;18.418;2022-11-14T08:13:42;11.70;99.90
24260;DHT22;12384;48.112;18.418;2022-11-14T08:16:29;12.40;99.90
24260;DHT22;12384;48.112;18.418;2022-11-14T08:19:16;13.00;99.90
24260;DHT22;12384;48.112;18.418;2022-11-14T08:22:02;13.80;99.90
24260;DHT22;12384;48.112;18.418;2022-11-14T08:24:49;14.40;99.90
24260;DHT22;12384;48.112;18.418;2022-11-14T08:27:36;15.00;99.90
24260;DHT22;12384;48.112;18.418;2022-11-14T08:30:24;15.50;99.90
24260;DHT22;12384;48.112;18.418;2022-11-14T08:33:11;16.20;99.90
24260;DHT22;12384;48.112;18.418;2022-11-14T08:35:59;16.50;99.90
24260;DHT22;12384;48.112;18.418;2022-11-14T08:38:46;17.00;99.90
24260;DHT22;12384;48.112;18.418;2022-11-14T08:41:36;17.30;97.60
24260;DHT22;12384;48.112;18.418;2022-11-14T08:44:22;17.50;88.90
24260;DHT22;12384;48.112;18.418;2022-11-14T08:47:10;17.70;75.60
24260;DHT22;12384;48.112;18.418;2022-11-14T08:49:57;17.80;73.00
24260;DHT22;12384;48.112;18.418;2022-11-14T08:52:48;17.70;71.00
24260;DHT22;12384;48.112;18.418;2022-11-14T08:55:35;17.90;69.50
24260;DHT22;12384;48.112;18.418;2022-11-14T08:58:22;18.00;69.40
24260;DHT22;12384;48.112;18.418;2022-11-14T09:01:09;18.10;67.90
24260;DHT22;12384;48.112;18.418;2022-11-14T09:03:58;18.30;66.90
24260;DHT22;12384;48.112;18.418;2022-11-14T09:06:45;18.40;63.50
24260;DHT22;12384;48.112;18.418;2022-11-14T09:09:32;18.70;63.70
24260;DHT22;12384;48.112;18.418;2022-11-14T09:12:19;18.90;60.90
24260;DHT22;12384;48.112;18.418;2022-11-14T09:15:06;18.90;57.30
24260;DHT22;12384;48.112;18.418;2022-11-14T09:17:53;19.00;56.40
24260;DHT22;12384;48.112;18.418;2022-11-14T09:20:42;18.90;55.00
24260;DHT22;12384;48.112;18.418;2022-11-14T09:23:29;18.80;53.60
24260;DHT22;12384;48.112;18.418;2022-11-14T09:26:17;18.80;53.40
24260;DHT22;12384;48.112;18.418;2022-11-14T09:29:04;18.80;52.50
24260;DHT22;12384;48.112;18.418;2022-11-14T09:31:51;18.70;50.90
24260;DHT22;12384;48.112;18.418;2022-11-14T09:34:39;18.80;51.80
24260;DHT22;12384;48.112;18.418;2022-11-14T09:37:31;18.90;52.40
24260;DHT22;12384;48.112;18.418;2022-11-14T09:40:18;19.00;51.30
24260;DHT22;12384;48.112;18.418;2022-11-14T09:43:14;19.30;51.20
24260;DHT22;12384;48.112;18.418;2022-11-14T09:46:11;19.30;48.60
24260;DHT22;12384;48.112;18.418;2022-11-14T09:49:00;19.20;48.20
24260;DHT22;12384;48.112;18.418;2022-11-14T09:51:49;19.10;48.80
24260;DHT22;12384;48.112;18.418;2022-11-14T09:54:44;19.10;48.80
24260;DHT22;12384;48.112;18.418;2022-11-14T09:57:33;19.10;48.30
24260;DHT22;12384;48.112;18.418;2022-11-14T10:00:22;19.30;48.90
24260;DHT22;12384;48.112;18.418;2022-11-14T10:03:15;19.40;48.20
24260;DHT22;12384;48.112;18.418;2022-11-14T10:06:19;19.50;48.50
24260;DHT22;12384;48.112;18.418;2022-11-14T10:09:27;19.60;47.70
24260;DHT22;12384;48.112;18.418;2022-11-14T10:12:22;19.60;47.50
24260;DHT22;12384;48.112;18.418;2022-11-14T10:15:17;19.40;47.30
24260;DHT22;12384;48.112;18.418;2022-11-14T10:18:14;19.50;48.00
24260;DHT22;12384;48.112;18.418;2022-11-14T10:21:12;19.70;47.80
24260;DHT22;12384;48.112;18.418;2022-11-14T10:24:14;19.90;47.90
24260;DHT22;12384;48.112;18.418;2022-11-14T10:27:15;20.00;47.70
24260;DHT22;12384;48.112;18.418;2022-11-14T10:30:09;20.20;47.50
24260;DHT22;12384;48.112;18.418;2022-11-14T10:33:10;20.40;47.80
24260;DHT22;12384;48.112;18.418;2022-11-14T10:36:05;20.70;48.00
24260;DHT22;12384;48.112;18.418;2022-11-14T10:39:02;20.90;47.70
24260;DHT22;12384;48.112;18.418;2022-11-14T10:41:55;21.00;46.70
24260;DHT22;12384;48.112;18.418;2022-11-14T10:44:57;21.10;46.80
24260;DHT22;12384;48.112;18.418;2022-11-14T10:47:52;21.30;46.50
24260;DHT22;12384;48.112;18.418;2022-11-14T10:50:44;21.40;46.30
24260;DHT22;12384;48.112;18.418;2022-11-14T10:53:41;21.50;45.90
24260;DHT22;12384;48.112;18.418;2022-11-14T10:56:29;21.60;46.20
24260;DHT22;12384;48.112;18.418;2022-11-14T10:59:16;21.80;45.20
24260;DHT22;12384;48.112;18.418;2022-11-14T11:02:03;21.90;44.70
24260;DHT22;12384;48.112;18.418;2022-11-14T11:04:51;22.00;44.60
24260;DHT22;12384;48.112;18.418;2022-11-14T11:07:44;22.10;44.10
24260;DHT22;12384;48.112;18.418;2022-11-14T11:11:11;22.10;43.10
24260;DHT22;12384;48.112;18.418;2022-11-14T11:14:18;22.00;42.70
24260;DHT22;12384;48.112;18.418;2022-11-14T11:17:23;21.80;42.50
24260;DHT22;12384;48.112;18.418;2022-11-14T11:20:32;21.70;42.70
24260;DHT22;12384;48.112;18.418;2022-11-14T11:23:24;21.60;43.10
24260;DHT22;12384;48.112;18.418;2022-11-14T11:26:17;21.60;42.80
24260;DHT22;12384;48.112;18.418;2022-11-14T11:29:15;21.60;42.30
24260;DHT22;12384;48.112;18.418;2022-11-14T11:32:02;21.70;42.70
24260;DHT22;12384;48.112;18.418;2022-11-14T11:34:50;21.70;42.50
24260;DHT22;12384;48.112;18.418;2022-11-14T11:37:43;21.70;42.30
24260;DHT22;12384;48.112;18.418;2022-11-14T11:40:30;21.70;42.10
24260;DHT22;12384;48.112;18.418;2022-11-14T11:43:29;21.60;42.00
24260;DHT22;12384;48.112;18.418;2022-11-14T11:46:28;21.60;42.50
24260;DHT22;12384;48.112;18.418;2022-11-14T11:49:22;21.40;42.20
24260;DHT22;12384;48.112;18.418;2022-11-14T11:52:12;21.30;42.00
24260;DHT22;12384;48.112;18.418;2022-11-14T11:55:13;21.30;42.40
24260;DHT22;12384;48.112;18.418;2022-11-14T11:58:05;21.20;42.40
24260;DHT22;12384;48.112;18.418;2022-11-14T12:00:52;21.10;42.10
24260;DHT22;12384;48.112;18.418;2022-11-14T12:03:41;20.90;42.20
24260;DHT22;12384;48.112;18.418;2022-11-14T12:06:38;20.80;42.10
24260;DHT22;12384;48.112;18.418;2022-11-14T12:09:32;20.70;42.40
24260;DHT22;12384;48.112;18.418;2022-11-14T12:13:04;20.50;42.60
24260;DHT22;12384;48.112;18.418;2022-11-14T12:16:05;20.40;43.00
24260;DHT22;12384;48.112;18.418;2022-11-14T12:19:22;20.40;43.20
24260;DHT22;12384;48.112;18.418;2022-11-14T12:22:30;20.40;43.50
24260;DHT22;12384;48.112;18.418;2022-11-14T12:25:41;20.40;43.60
24260;DHT22;12384;48.112;18.418;2022-11-14T12:28:53;20.50;43.70
24260;DHT22;12384;48.112;18.418;2022-11-14T12:31:44;20.70;43.30
24260;DHT22;12384;48.112;18.418;2022-11-14T12:34:36;20.90;44.20
24260;DHT22;12384;48.112;18.418;2022-11-14T12:37:29;21.10;43.60
24260;DHT22;12384;48.112;18.418;2022-11-14T12:40:23;21.40;43.10
24260;DHT22;12384;48.112;18.418;2022-11-14T12:43:32;21.60;42.40
24260;DHT22;12384;48.112;18.418;2022-11-14T12:46:23;21.70;41.40
24260;DHT22;12384;48.112;18.418;2022-11-14T12:49:37;21.80;41.20
24260;DHT22;12384;48.112;18.418;2022-11-14T12:52:44;22.00;42.20
24260;DHT22;12384;48.112;18.418;2022-11-14T12:55:53;22.10;41.50
24260;DHT22;12384;48.112;18.418;2022-11-14T13:02:16;22.40;41.20
24260;DHT22;12384;48.112;18.418;2022-11-14T13:05:27;22.60;40.80
24260;DHT22;12384;48.112;18.418;2022-11-14T13:08:51;22.80;40.50
24260;DHT22;12384;48.112;18.418;2022-11-14T13:11:44;22.90;39.50
24260;DHT22;12384;48.112;18.418;2022-11-14T13:14:50;22.90;39.40
24260;DHT22;12384;48.112;18.418;2022-11-14T13:18:19;22.80;39.30
24260;DHT22;12384;48.112;18.418;2022-11-14T13:21:26;22.70;39.40
24260;DHT22;12384;48.112;18.418;2022-11-14T13:27:50;22.30;40.00
24260;DHT22;12384;48.112;18.418;2022-11-14T13:31:06;22.10;40.40
24260;DHT22;12384;48.112;18.418;2022-11-14T13:34:30;22.00;40.80
24260;DHT22;12384;48.112;18.418;2022-11-14T13:37:44;21.80;40.80
24260;DHT22;12384;48.112;18.418;2022-11-14T13:40:37;21.60;40.80
24260;DHT22;12384;48.112;18.418;2022-11-14T13:43:41;21.30;41.40
24260;DHT22;12384;48.112;18.418;2022-11-14T13:46:42;21.10;41.10
24260;DHT22;12384;48.112;18.418;2022-11-14T13:49:48;20.80;41.20
24260;DHT22;12384;48.112;18.418;2022-11-14T13:52:41;20.50;41.40
24260;DHT22;12384;48.112;18.418;2022-11-14T13:55:37;20.10;41.60
24260;DHT22;12384;48.112;18.418;2022-11-14T13:58:41;19.70;41.90
24260;DHT22;12384;48.112;18.418;2022-11-14T14:01:42;19.30;42.30
24260;DHT22;12384;48.112;18.418;2022-11-14T14:04:43;19.00;42.70
24260;DHT22;12384;48.112;18.418;2022-11-14T14:07:49;18.60;43.10
24260;DHT22;12384;48.112;18.418;2022-11-14T14:10:41;18.20;43.50
24260;DHT22;12384;48.112;18.418;2022-11-14T14:13:38;17.80;44.40
24260;DHT22;12384;48.112;18.418;2022-11-14T14:16:33;17.40;44.80
24260;DHT22;12384;48.112;18.418;2022-11-14T14:19:30;16.90;44.50
24260;DHT22;12384;48.112;18.418;2022-11-14T14:22:30;16.50;44.60
24260;DHT22;12384;48.112;18.418;2022-11-14T14:25:25;16.00;45.00
24260;DHT22;12384;48.112;18.418;2022-11-14T14:28:19;15.60;45.50
24260;DHT22;12384;48.112;18.418;2022-11-14T14:31:11;15.20;45.80
24260;DHT22;12384;48.112;18.418;2022-11-14T14:34:00;14.80;46.10
24260;DHT22;12384;48.112;18.418;2022-11-14T14:36:51;14.50;46.60
24260;DHT22;12384;48.112;18.418;2022-11-14T14:39:40;14.20;46.80
24260;DHT22;12384;48.112;18.418;2022-11-14T14:42:33;13.90;47.40
24260;DHT22;12384;48.112;18.418;2022-11-14T14:45:23;13.60;47.40
24260;DHT22;12384;48.112;18.418;2022-11-14T14:48:12;13.40;47.80
24260;DHT22;12384;48.112;18.418;2022-11-14T14:51:00;13.10;48.00
24260;DHT22;12384;48.112;18.418;2022-11-14T14:53:50;12.90;48.30
24260;DHT22;12384;48.112;18.418;2022-11-14T14:56:51;12.70;48.50
24260;DHT22;12384;48.112;18.418;2022-11-14T14:59:39;12.50;49.00
24260;DHT22;12384;48.112;18.418;2022-11-14T15:02:27;12.30;49.20
24260;DHT22;12384;48.112;18.418;2022-11-14T15:05:21;12.10;49.60
24260;DHT22;12384;48.112;18.418;2022-11-14T15:08:12;11.90;50.20
24260;DHT22;12384;48.112;18.418;2022-11-14T15:10:59;11.80;50.60
24260;DHT22;12384;48.112;18.418;2022-11-14T15:13:52;11.60;51.00
24260;DHT22;12384;48.112;18.418;2022-11-14T15:16:40;11.50;51.20
24260;DHT22;12384;48.112;18.418;2022-11-14T15:19:32;11.30;51.70
24260;DHT22;12384;48.112;18.418;2022-11-14T15:22:25;11.20;51.90
24260;DHT22;12384;48.112;18.418;2022-11-14T15:25:18;11.00;52.80
24260;DHT22;12384;48.112;18.418;2022-11-14T15:28:13;10.90;53.10
24260;DHT22;12384;48.112;18.418;2022-11-14T15:31:04;10.80;53.40
24260;DHT22;12384;48.112;18.418;2022-11-14T15:34:02;10.60;53.20
24260;DHT22;12384;48.112;18.418;2022-11-14T15:37:19;10.50;53.50
24260;DHT22;12384;48.112;18.418;2022-11-14T15:40:17;10.40;54.10
24260;DHT22;12384;48.112;18.418;2022-11-14T15:43:35;10.30;54.10
24260;DHT22;12384;48.112;18.418;2022-11-14T15:46:40;10.20;54.50
24260;DHT22;12384;48.112;18.418;2022-11-14T15:49:27;10.10;54.30
24260;DHT22;12384;48.112;18.418;2022-11-14T15:52:18;10.00;54.60
24260;DHT22;12384;48.112;18.418;2022-11-14T15:55:13;9.90;55.70
24260;DHT22;12384;48.112;18.418;2022-11-14T15:58:00;9.80;55.80
24260;DHT22;12384;48.112;18.418;2022-11-14T16:01:13;9.70;56.20
24260;DHT22;12384;48.112;18.418;2022-11-14T16:04:03;9.60;56.70
24260;DHT22;12384;48.112;18.418;2022-11-14T16:06:50;9.60;57.60
24260;DHT22;12384;48.112;18.418;2022-11-14T16:09:37;9.50;57.00
24260;DHT22;12384;48.112;18.418;2022-11-14T16:12:24;9.40;57.00
24260;DHT22;12384;48.112;18.418;2022-11-14T16:15:11;9.40;57.60
24260;DHT22;12384;48.112;18.418;2022-11-14T16:17:58;9.30;58.40
24260;DHT22;12384;48.112;18.418;2022-11-14T16:20:46;9.30;58.20
24260;DHT22;12384;48.112;18.418;2022-11-14T16:23:33;9.20;58.00
24260;DHT22;12384;48.112;18.418;2022-11-14T16:26:19;9.20;58.10
24260;DHT22;12384;48.112;18.418;2022-11-14T16:29:06;9.20;58.40
24260;DHT22;12384;48.112;18.418;2022-11-14T16:31:54;9.20;58.60
24260;DHT22;12384;48.112;18.418;2022-11-14T16:34:40;9.10;58.60
24260;DHT22;12384;48.112;18.418;2022-11-14T16:37:28;9.10;58.80
24260;DHT22;12384;48.112;18.418;2022-11-14T16:40:16;9.10;58.90
24260;DHT22;12384;48.112;18.418;2022-11-14T16:43:08;9.10;59.10
24260;DHT22;12384;48.112;18.418;2022-11-14T16:45:57;9.00;59.50
24260;DHT22;12384;48.112;18.418;2022-11-14T16:48:43;9.00;59.70
24260;DHT22;12384;48.112;18.418;2022-11-14T16:51:30;9.00;60.10
24260;DHT22;12384;48.112;18.418;2022-11-14T16:54:36;8.90;59.90
24260;DHT22;12384;48.112;18.418;2022-11-14T16:57:23;8.90;60.10
24260;DHT22;12384;48.112;18.418;2022-11-14T17:00:12;8.90;60.20
24260;DHT22;12384;48.112;18.418;2022-11-14T17:02:59;8.80;60.80
24260;DHT22;12384;48.112;18.418;2022-11-14T17:05:48;8.80;60.30
24260;DHT22;12384;48.112;18.418;2022-11-14T17:08:34;8.70;60.50
24260;DHT22;12384;48.112;18.418;2022-11-14T17:11:23;8.70;61.20
24260;DHT22;12384;48.112;18.418;2022-11-14T17:14:10;8.70;61.60
24260;DHT22;12384;48.112;18.418;2022-11-14T17:16:57;8.60;62.30
24260;DHT22;12384;48.112;18.418;2022-11-14T17:19:47;8.60;62.70
24260;DHT22;12384;48.112;18.418;2022-11-14T17:22:34;8.60;62.90
24260;DHT22;12384;48.112;18.418;2022-11-14T17:25:21;8.50;63.00
24260;DHT22;12384;48.112;18.418;2022-11-14T17:28:09;8.50;63.20
24260;DHT22;12384;48.112;18.418;2022-11-14T17:30:56;8.40;63.40
24260;DHT22;12384;48.112;18.418;2022-11-14T17:33:48;8.40;63.50
24260;DHT22;12384;48.112;18.418;2022-11-14T17:36:35;8.30;63.70
24260;DHT22;12384;48.112;18.418;2022-11-14T17:39:22;8.30;64.10
24260;DHT22;12384;48.112;18.418;2022-11-14T17:42:09;8.20;64.40
24260;DHT22;12384;48.112;18.418;2022-11-14T17:44:57;8.20;64.70
24260;DHT22;12384;48.112;18.418;2022-11-14T17:47:45;8.10;65.20
24260;DHT22;12384;48.112;18.418;2022-11-14T17:50:32;8.10;65.90
24260;DHT22;12384;48.112;18.418;2022-11-14T17:53:22;8.10;66.50
24260;DHT22;12384;48.112;18.418;2022-11-14T17:56:12;8.00;66.90
24260;DHT22;12384;48.112;18.418;2022-11-14T17:58:59;8.00;67.70
24260;DHT22;12384;48.112;18.418;2022-11-14T18:01:48;8.00;68.20